Time;durP1;ratioP1;P1;durP2;ratioP2;P2;SDS_P1;SDS_P2;PMS_P1;PMS_P2;Temp;Humidity;BMP_temperature;BMP_pressure;BME280_temperature;BME280_humidity;BME280_pressure;Samples;Min_cycle;Max_cycle;Signal;HPM_P1;HPM_P2
2023/01/29 00:01:03;;;;;;;23.43;12.87;;;3.50;83.70;;;;;;5052299;28;20024;-82
2023/01/29 00:03:29;;;;;;;22.80;12.03;;;3.40;83.90;;;;;;5051728;28;20037;-81
2023/01/29 00:05:55;;;;;;;24.80;12.40;;;3.40;84.10;;;;;;5034760;28;20096;-82
2023/01/29 00:08:20;;;;;;;25.57;14.10;;;3.40;84.10;;;;;;5051804;28;20045;-82
2023/01/29 00:10:46;;;;;;;23.97;13.17;;;3.40;84.50;;;;;;5051720;28;20025;-82
2023/01/29 00:13:12;;;;;;;24.07;13.20;;;3.40;84.20;;;;;;5051725;28;20039;-82
2023/01/29 00:15:38;;;;;;;21.87;12.00;;;3.30;84.10;;;;;;5051434;28;20021;-81
2023/01/29 00:18:03;;;;;;;24.23;13.10;;;3.30;84.20;;;;;;5050994;28;20480;-82
2023/01/29 00:20:30;;;;;;;29.37;14.73;;;3.30;84.30;;;;;;5034825;28;20029;-82
2023/01/29 00:22:55;;;;;;;23.47;13.47;;;3.30;84.50;;;;;;5053054;28;20064;-82
2023/01/29 00:25:21;;;;;;;22.53;13.57;;;3.20;84.40;;;;;;5034596;28;20366;-82
2023/01/29 00:27:47;;;;;;;27.87;15.03;;;3.30;84.70;;;;;;5020554;28;20041;-82
2023/01/29 00:30:17;;;;;;;26.63;13.53;;;3.30;84.90;;;;;;5056073;28;20029;-82
2023/01/29 00:32:44;;;;;;;27.17;14.60;;;3.30;85.00;;;;;;5055064;28;20032;-82
2023/01/29 00:35:10;;;;;;;29.63;15.50;;;3.20;84.60;;;;;;5054498;28;20115;-82
2023/01/29 00:37:36;;;;;;;28.77;14.80;;;3.30;85.10;;;;;;5056121;28;20067;-82
2023/01/29 00:40:03;;;;;;;25.87;14.77;;;3.30;85.20;;;;;;5038527;28;20029;-82
2023/01/29 00:45:13;;;;;;;23.23;13.13;;;3.30;85.40;;;;;;5041202;28;20040;-82
2023/01/29 00:47:39;;;;;;;24.60;13.50;;;3.20;85.40;;;;;;5054459;28;20393;-82
2023/01/29 00:50:07;;;;;;;25.50;13.80;;;3.20;85.30;;;;;;5056024;28;20029;-82
2023/01/29 00:52:35;;;;;;;24.00;12.87;;;3.20;85.30;;;;;;5056059;28;20087;-82
2023/01/29 00:55:02;;;;;;;24.20;13.67;;;3.20;85.20;;;;;;5054494;28;20067;-82
2023/01/29 00:57:29;;;;;;;26.40;14.43;;;3.20;85.50;;;;;;5054077;28;20029;-82
2023/01/29 00:59:55;;;;;;;26.13;12.83;;;3.30;85.50;;;;;;5054429;28;20021;-82
2023/01/29 01:05:06;;;;;;;23.20;12.03;;;3.20;85.30;;;;;;5055337;28;20048;-82
2023/01/29 01:07:32;;;;;;;26.30;13.27;;;3.20;85.50;;;;;;5037588;28;20037;-82
2023/01/29 01:12:42;;;;;;;24.63;14.17;;;3.10;85.60;;;;;;5054549;28;20063;-82
2023/01/29 01:15:09;;;;;;;27.33;14.50;;;3.10;85.80;;;;;;5038030;28;20532;-82
2023/01/29 01:17:35;;;;;;;25.63;13.43;;;3.10;85.80;;;;;;5054031;28;20037;-82
2023/01/29 01:20:01;;;;;;;25.03;12.97;;;3.20;85.80;;;;;;5037450;28;20512;-82
2023/01/29 01:22:26;;;;;;;26.73;13.60;;;3.10;85.80;;;;;;5055614;28;20036;-81
2023/01/29 01:24:52;;;;;;;26.80;13.80;;;3.10;86.10;;;;;;5037332;28;20029;-82
2023/01/29 01:27:18;;;;;;;27.37;14.53;;;3.10;86.00;;;;;;5053458;28;20025;-82
2023/01/29 01:29:45;;;;;;;27.33;13.67;;;3.10;86.30;;;;;;5037359;28;20025;-82
2023/01/29 01:32:11;;;;;;;24.07;12.87;;;3.10;86.30;;;;;;5037616;28;20473;-82
2023/01/29 01:34:37;;;;;;;27.03;14.80;;;3.10;86.30;;;;;;5053593;28;20031;-82
2023/01/29 01:37:03;;;;;;;27.83;14.47;;;3.10;86.30;;;;;;5053431;28;20116;-82
2023/01/29 01:39:28;;;;;;;27.33;15.03;;;3.10;86.50;;;;;;5037317;28;20124;-82
2023/01/29 01:41:54;;;;;;;28.03;14.67;;;3.10;86.50;;;;;;5054040;28;20120;-82
2023/01/29 01:44:57;;;;;;;23.33;13.50;;;3.10;86.50;;;;;;5036752;28;20044;-82
2023/01/29 01:47:47;;;;;;;28.07;15.57;;;3.10;86.60;;;;;;5053136;28;20056;-82
2023/01/29 01:50:17;;;;;;;27.37;14.37;;;3.00;86.70;;;;;;5053453;28;20029;-82
2023/01/29 01:52:49;;;;;;;29.23;15.40;;;3.00;86.50;;;;;;5053441;28;20037;-82
2023/01/29 01:55:17;;;;;;;29.37;15.37;;;3.00;86.80;;;;;;5054910;28;20457;-82
2023/01/29 01:57:46;;;;;;;26.33;14.03;;;3.00;86.90;;;;;;5053166;28;20060;-82
2023/01/29 02:00:16;;;;;;;28.33;15.30;;;3.10;86.90;;;;;;5053468;28;20021;-82
2023/01/29 02:11:18;;;;;;;27.37;13.13;;;2.90;86.90;;;;;;5054707;28;20040;-82
2023/01/29 02:13:44;;;;;;;30.97;15.77;;;2.90;87.10;;;;;;5036660;28;20029;-83
2023/01/29 02:16:10;;;;;;;26.20;15.00;;;3.00;87.20;;;;;;5054240;28;20025;-82
2023/01/29 02:18:36;;;;;;;30.30;14.57;;;2.90;87.30;;;;;;5052552;28;20499;-82
2023/01/29 02:21:28;;;;;;;26.10;14.00;;;2.90;87.50;;;;;;5052986;28;20481;-82
2023/01/29 02:24:02;;;;;;;29.70;14.87;;;2.90;87.40;;;;;;5052547;28;20485;-82
2023/01/29 02:26:55;;;;;;;26.83;15.03;;;2.80;87.70;;;;;;5053095;28;20036;-82
2023/01/29 02:29:32;;;;;;;27.57;14.63;;;2.90;88.40;;;;;;5054291;28;20044;-82
2023/01/29 02:32:19;;;;;;;30.33;17.20;;;2.80;87.50;;;;;;5053302;28;20025;-82
2023/01/29 02:35:26;;;;;;;30.03;16.13;;;2.80;87.70;;;;;;5054089;28;20474;-82
2023/01/29 02:37:57;;;;;;;30.40;15.47;;;2.80;87.90;;;;;;5053293;28;20047;-82
2023/01/29 02:40:35;;;;;;;33.57;16.73;;;2.80;88.00;;;;;;5052584;28;20021;-82
2023/01/29 02:43:08;;;;;;;27.70;15.77;;;2.80;88.00;;;;;;5052846;28;20116;-82
2023/01/29 02:45:38;;;;;;;28.00;14.73;;;2.80;87.90;;;;;;5052157;28;20025;-82
2023/01/29 02:48:05;;;;;;;26.63;14.30;;;2.80;87.90;;;;;;5052487;28;20424;-82
2023/01/29 02:50:41;;;;;;;31.33;15.50;;;2.80;88.10;;;;;;5051863;28;20078;-82
2023/01/29 02:53:31;;;;;;;29.13;14.70;;;2.80;88.00;;;;;;5053411;28;20022;-83
2023/01/29 02:56:03;;;;;;;28.40;14.47;;;2.80;88.10;;;;;;5052304;28;20059;-82
2023/01/29 02:58:51;;;;;;;31.80;16.27;;;2.80;88.10;;;;;;5052327;28;20040;-82
2023/01/29 03:01:29;;;;;;;29.87;15.30;;;2.80;88.40;;;;;;5051855;28;20041;-82
2023/01/29 03:04:02;;;;;;;29.37;15.40;;;2.80;88.20;;;;;;5052172;28;20032;-82
2023/01/29 03:06:36;;;;;;;27.92;14.18;;;2.80;88.20;;;;;;5051516;28;20366;-82
2023/01/29 03:09:08;;;;;;;25.05;12.48;;;2.80;88.20;;;;;;5052090;28;20033;-82
2023/01/29 03:11:39;;;;;;;27.23;14.40;;;2.70;88.40;;;;;;5052189;28;20017;-83
2023/01/29 03:14:12;;;;;;;29.70;15.57;;;2.80;88.50;;;;;;5051999;28;20112;-82
2023/01/29 03:16:50;;;;;;;29.90;15.30;;;2.70;88.40;;;;;;5053146;28;20055;-82
2023/01/29 03:19:21;;;;;;;32.20;16.37;;;2.70;88.50;;;;;;5051999;28;20074;-82
2023/01/29 03:22:00;;;;;;;31.53;16.90;;;2.70;88.60;;;;;;5051933;28;20112;-82
2023/01/29 03:33:05;;;;;;;28.10;15.00;;;2.70;88.80;;;;;;5053230;28;20032;-80
2023/01/29 03:35:36;;;;;;;25.07;14.43;;;2.70;88.70;;;;;;5051095;28;20028;-82
2023/01/29 03:38:08;;;;;;;31.33;17.23;;;2.80;88.70;;;;;;5051579;28;20021;-80
2023/01/29 03:40:38;;;;;;;29.60;15.73;;;2.80;88.90;;;;;;5051499;28;20484;-80
2023/01/29 03:43:24;;;;;;;30.73;16.10;;;2.80;88.90;;;;;;5051585;28;20031;-80
2023/01/29 03:46:07;;;;;;;29.33;15.93;;;2.80;88.90;;;;;;5052846;28;20397;-81
2023/01/29 03:48:49;;;;;;;29.40;15.93;;;2.80;89.10;;;;;;5051537;28;20169;-80
2023/01/29 03:51:47;;;;;;;32.47;16.83;;;2.80;89.10;;;;;;5051646;28;20025;-81
2023/01/29 03:54:39;;;;;;;30.27;16.37;;;2.90;89.10;;;;;;5052428;28;20045;-81
2023/01/29 03:57:33;;;;;;;29.67;16.00;;;2.80;89.20;;;;;;5051582;28;20488;-80
2023/01/29 04:00:26;;;;;;;29.88;15.82;;;2.80;89.00;;;;;;5051546;28;20485;-80
2023/01/29 04:03:08;;;;;;;33.03;16.83;;;2.90;89.20;;;;;;5055417;28;20607;-80
2023/01/29 04:05:44;;;;;;;30.13;15.80;;;2.80;89.40;;;;;;5055440;28;20037;-80
2023/01/29 04:08:22;;;;;;;29.50;15.50;;;2.90;89.30;;;;;;5056825;28;20074;-80
2023/01/29 04:10:50;;;;;;;28.83;15.60;;;2.80;90.00;;;;;;5056424;28;20488;-83
2023/01/29 04:13:17;;;;;;;30.93;16.33;;;2.80;89.60;;;;;;5054978;28;20025;-83
2023/01/29 04:15:49;;;;;;;34.53;17.47;;;2.80;89.60;;;;;;5055638;28;20071;-82
2023/01/29 04:18:15;;;;;;;31.97;15.97;;;2.80;89.90;;;;;;5054808;28;20070;-83
2023/01/29 04:20:41;;;;;;;33.53;18.10;;;2.80;90.00;;;;;;5055315;28;20021;-82
2023/01/29 04:23:20;;;;;;;32.93;17.60;;;2.80;90.00;;;;;;5055126;28;20029;-82
2023/01/29 04:25:52;;;;;;;33.60;16.70;;;2.80;90.00;;;;;;5054760;28;20021;-83
2023/01/29 04:28:58;;;;;;;30.10;16.10;;;2.80;90.10;;;;;;5056516;28;20029;-82
2023/01/29 04:31:31;;;;;;;31.73;17.17;;;2.80;90.10;;;;;;5056149;28;20056;-82
2023/01/29 04:34:10;;;;;;;34.57;16.87;;;2.80;90.00;;;;;;5055043;28;20461;-80
2023/01/29 04:37:07;;;;;;;30.30;15.53;;;2.80;90.10;;;;;;5054847;28;20044;-80
2023/01/29 04:39:55;;;;;;;34.50;17.77;;;2.80;90.00;;;;;;5043942;28;20040;-82
2023/01/29 04:42:47;;;;;;;35.37;16.63;;;2.80;90.10;;;;;;5055920;28;20100;-80
2023/01/29 04:45:22;;;;;;;34.60;18.00;;;2.80;90.00;;;;;;5050995;28;20029;-82
2023/01/29 04:48:08;;;;;;;30.97;16.70;;;2.80;90.10;;;;;;5055848;28;20037;-80
2023/01/29 04:50:48;;;;;;;33.43;17.23;;;2.80;90.10;;;;;;5054427;28;20492;-80
2023/01/29 04:53:24;;;;;;;29.67;16.43;;;2.80;90.10;;;;;;5054419;28;20071;-80
2023/01/29 04:56:17;;;;;;;31.90;16.73;;;2.80;90.10;;;;;;5054343;28;20029;-80
2023/01/29 04:58:51;;;;;;;35.07;18.13;;;2.80;90.10;;;;;;5054458;28;20079;-80
2023/01/29 05:01:18;;;;;;;32.85;17.40;;;2.80;90.20;;;;;;5055520;28;20067;-80
2023/01/29 05:03:49;;;;;;;34.07;18.37;;;2.80;90.20;;;;;;5053824;28;20497;-81
2023/01/29 05:06:17;;;;;;;31.53;16.70;;;2.80;90.20;;;;;;5053998;28;20028;-80
2023/01/29 05:08:43;;;;;;;37.13;18.23;;;2.90;90.20;;;;;;5055643;28;20041;-80
2023/01/29 05:11:09;;;;;;;32.07;16.77;;;2.80;90.20;;;;;;5054078;28;20021;-80
2023/01/29 05:13:38;;;;;;;32.63;17.47;;;2.90;90.30;;;;;;5053317;28;20025;-83
2023/01/29 05:16:08;;;;;;;32.00;16.13;;;2.90;90.30;;;;;;5055237;28;20355;-82
2023/01/29 05:18:34;;;;;;;34.37;18.23;;;2.90;90.30;;;;;;5054028;28;20376;-82
2023/01/29 05:21:04;;;;;;;33.17;17.80;;;2.90;90.40;;;;;;5054118;28;20025;-81
2023/01/29 05:23:29;;;;;;;36.20;18.23;;;3.00;90.40;;;;;;5054188;28;20036;-82
2023/01/29 05:25:56;;;;;;;33.03;17.70;;;2.90;90.40;;;;;;5055342;28;20029;-83
2023/01/29 05:28:22;;;;;;;35.93;19.03;;;3.00;90.40;;;;;;5054824;28;20470;-80
2023/01/29 05:30:50;;;;;;;34.33;18.70;;;3.00;90.50;;;;;;5054194;28;20032;-83
2023/01/29 05:33:15;;;;;;;32.40;18.07;;;2.90;90.50;;;;;;5054979;28;20025;-82
2023/01/29 05:35:41;;;;;;;33.57;17.97;;;2.90;90.50;;;;;;5054636;28;20029;-82
2023/01/29 05:38:07;;;;;;;31.00;16.80;;;3.00;90.50;;;;;;5054911;28;20501;-80
2023/01/29 05:40:33;;;;;;;31.10;16.97;;;3.00;90.50;;;;;;5037125;28;20032;-82
2023/01/29 05:42:59;;;;;;;33.70;19.13;;;3.00;90.50;;;;;;5053612;28;20029;-82
2023/01/29 05:45:25;;;;;;;36.93;18.67;;;3.00;90.40;;;;;;5053816;28;20037;-82
2023/01/29 05:47:54;;;;;;;31.73;17.57;;;3.00;90.50;;;;;;5055026;28;20523;-82
2023/01/29 05:50:19;;;;;;;32.67;18.27;;;3.00;90.50;;;;;;5053467;28;20110;-82
2023/01/29 05:52:45;;;;;;;34.83;18.77;;;3.00;90.50;;;;;;5053391;28;20068;-80
2023/01/29 05:55:11;;;;;;;34.80;19.33;;;3.00;90.60;;;;;;5019688;28;20121;-80
2023/01/29 05:57:38;;;;;;;37.30;19.70;;;3.00;90.60;;;;;;5020542;28;20025;-80
2023/01/29 06:00:04;;;;;;;38.23;18.80;;;3.00;90.60;;;;;;5053670;28;20017;-80
2023/01/29 06:02:30;;;;;;;39.23;20.20;;;3.00;90.60;;;;;;5036336;28;20064;-82
2023/01/29 06:04:56;;;;;;;34.47;18.83;;;3.00;90.60;;;;;;5053963;28;20029;-80
2023/01/29 06:07:22;;;;;;;37.20;20.13;;;3.10;90.70;;;;;;5036841;28;20036;-81
2023/01/29 06:09:47;;;;;;;35.87;20.27;;;3.10;90.70;;;;;;5053169;28;20039;-82
2023/01/29 06:12:13;;;;;;;38.83;20.80;;;3.10;90.70;;;;;;5036698;28;20047;-81
2023/01/29 06:14:39;;;;;;;41.63;22.33;;;3.10;90.70;;;;;;5036583;28;20033;-81
2023/01/29 06:17:04;;;;;;;40.67;21.90;;;3.00;90.80;;;;;;5020058;28;20440;-81
2023/01/29 06:19:30;;;;;;;41.07;22.83;;;3.10;90.80;;;;;;5036073;28;20505;-81
2023/01/29 06:21:56;;;;;;;41.43;22.13;;;3.00;90.70;;;;;;5036415;28;20052;-81
2023/01/29 06:24:21;;;;;;;37.63;21.50;;;3.00;90.70;;;;;;5035032;28;20025;-81
2023/01/29 06:26:47;;;;;;;38.90;21.23;;;3.00;90.80;;;;;;5036609;28;20072;-81
2023/01/29 06:29:12;;;;;;;37.77;21.50;;;3.00;90.80;;;;;;5052734;28;20056;-81
2023/01/29 06:31:39;;;;;;;37.87;21.50;;;3.00;90.80;;;;;;5036253;28;20036;-81
2023/01/29 06:34:06;;;;;;;43.40;22.20;;;3.00;90.90;;;;;;5053690;28;20025;-81
2023/01/29 06:36:31;;;;;;;41.30;21.77;;;3.00;90.80;;;;;;5052447;28;20036;-81
2023/01/29 06:38:57;;;;;;;36.20;20.10;;;3.00;90.90;;;;;;5053529;28;20025;-81
2023/01/29 06:41:24;;;;;;;34.73;19.50;;;3.00;90.80;;;;;;5035853;28;20033;-81
2023/01/29 06:43:50;;;;;;;37.33;20.70;;;3.00;90.90;;;;;;5019770;28;20095;-81
2023/01/29 06:46:16;;;;;;;41.47;22.37;;;3.10;90.90;;;;;;5052477;28;20029;-81
2023/01/29 06:48:42;;;;;;;41.50;21.60;;;3.00;90.90;;;;;;5053738;28;20037;-81
2023/01/29 06:51:09;;;;;;;35.73;20.37;;;3.00;91.00;;;;;;5053413;28;20024;-81
2023/01/29 06:53:36;;;;;;;39.13;21.27;;;3.00;90.90;;;;;;5035508;28;20032;-81
2023/01/29 06:56:03;;;;;;;38.60;20.87;;;3.00;90.90;;;;;;5052230;28;20100;-81
2023/01/29 06:58:29;;;;;;;34.27;20.73;;;3.00;91.00;;;;;;5053379;28;20028;-81
2023/01/29 07:01:05;;;;;;;33.60;18.97;;;3.00;91.00;;;;;;5053447;28;20424;-81
2023/01/29 07:03:31;;;;;;;37.30;20.03;;;3.10;91.30;;;;;;5051867;28;20048;-81
2023/01/29 07:05:57;;;;;;;33.50;19.07;;;3.00;91.00;;;;;;5034973;28;20029;-81
2023/01/29 07:08:23;;;;;;;35.37;18.47;;;3.00;91.00;;;;;;5052085;28;20041;-81
2023/01/29 07:10:49;;;;;;;34.70;18.40;;;3.10;91.00;;;;;;5019292;28;20025;-81
2023/01/29 07:13:15;;;;;;;34.63;18.93;;;3.10;91.00;;;;;;5035486;28;20404;-80
2023/01/29 07:15:41;;;;;;;36.33;19.00;;;3.00;91.00;;;;;;5051765;28;20033;-81
2023/01/29 07:18:10;;;;;;;34.53;18.87;;;3.10;91.00;;;;;;5051772;28;20233;-81
2023/01/29 07:20:40;;;;;;;35.53;19.97;;;3.10;91.00;;;;;;5035847;28;20025;-81
2023/01/29 07:23:10;;;;;;;37.00;19.93;;;3.20;91.10;;;;;;5051991;28;20025;-81
2023/01/29 07:25:36;;;;;;;35.27;19.80;;;3.10;91.10;;;;;;5051781;28;20029;-81
2023/01/29 07:28:02;;;;;;;34.67;19.27;;;3.20;91.10;;;;;;5051838;28;20120;-81
2023/01/29 07:30:29;;;;;;;31.33;17.17;;;3.20;91.10;;;;;;5051961;28;20029;-81
2023/01/29 07:32:54;;;;;;;32.13;18.83;;;3.10;91.00;;;;;;5053313;28;20108;-81
2023/01/29 07:35:20;;;;;;;34.27;18.40;;;3.20;91.10;;;;;;5018055;28;20116;-81
2023/01/29 07:37:49;;;;;;;34.60;19.20;;;3.20;91.00;;;;;;5052325;28;20040;-81
2023/01/29 07:40:15;;;;;;;34.00;18.67;;;3.20;91.10;;;;;;5035080;28;20044;-81
2023/01/29 07:42:42;;;;;;;34.20;18.53;;;3.30;91.10;;;;;;5035013;28;20137;-81
2023/01/29 07:45:09;;;;;;;34.63;18.23;;;3.30;91.10;;;;;;5051648;28;20031;-81
2023/01/29 07:47:35;;;;;;;35.00;17.93;;;3.30;91.10;;;;;;5051465;28;20480;-81
2023/01/29 07:50:01;;;;;;;35.83;19.40;;;3.30;91.10;;;;;;5052473;28;20037;-81
2023/01/29 07:52:29;;;;;;;36.67;20.60;;;3.30;91.10;;;;;;5035090;28;20032;-81
2023/01/29 07:54:55;;;;;;;35.03;18.00;;;3.30;91.10;;;;;;5051568;28;20025;-81
2023/01/29 07:57:21;;;;;;;35.87;19.60;;;3.30;91.10;;;;;;5052694;28;20025;-81
2023/01/29 07:59:46;;;;;;;35.47;21.00;;;3.40;91.10;;;;;;5034809;28;20082;-81
2023/01/29 08:02:12;;;;;;;38.27;19.93;;;3.40;91.10;;;;;;5034589;28;20250;-80
2023/01/29 08:04:38;;;;;;;38.03;20.90;;;3.40;91.20;;;;;;5052652;28;20025;-80
2023/01/29 08:07:03;;;;;;;35.17;20.53;;;3.40;91.10;;;;;;5051111;28;20036;-81
2023/01/29 08:09:30;;;;;;;38.63;19.90;;;3.40;91.10;;;;;;5018558;28;20132;-80
2023/01/29 08:11:56;;;;;;;39.50;20.23;;;3.50;91.10;;;;;;5051268;28;20032;-81
2023/01/29 08:14:22;;;;;;;37.87;22.20;;;3.50;91.20;;;;;;5034893;28;20025;-81
2023/01/29 08:16:48;;;;;;;40.50;23.20;;;3.50;91.20;;;;;;5052815;28;20029;-81
2023/01/29 08:19:14;;;;;;;41.57;22.83;;;3.40;91.10;;;;;;5051473;28;20104;-81
2023/01/29 08:21:39;;;;;;;38.77;21.20;;;3.40;91.10;;;;;;5035058;28;20120;-81
2023/01/29 08:24:06;;;;;;;39.57;20.07;;;3.40;91.10;;;;;;5034865;28;20055;-80
2023/01/29 08:26:31;;;;;;;40.43;23.10;;;3.40;91.10;;;;;;5052447;28;20022;-81
2023/01/29 08:28:57;;;;;;;36.83;21.40;;;3.40;91.10;;;;;;5034402;28;20037;-81
2023/01/29 08:31:23;;;;;;;38.60;21.47;;;3.40;91.10;;;;;;5034732;28;20025;-81
2023/01/29 08:33:49;;;;;;;36.63;20.33;;;3.40;91.00;;;;;;5051257;28;20036;-81
2023/01/29 08:36:14;;;;;;;36.63;20.30;;;3.40;91.00;;;;;;5034493;28;20021;-81
2023/01/29 08:38:40;;;;;;;32.10;18.63;;;3.40;91.00;;;;;;5034846;28;20462;-80
2023/01/29 08:41:06;;;;;;;35.97;19.87;;;3.60;91.00;;;;;;5034380;28;20480;-80
2023/01/29 08:43:34;;;;;;;37.33;21.07;;;3.50;91.00;;;;;;5051488;28;20445;-80
2023/01/29 08:45:59;;;;;;;37.10;19.87;;;3.60;91.10;;;;;;5034570;28;20025;-81
2023/01/29 08:48:25;;;;;;;36.40;20.37;;;3.60;91.10;;;;;;5052851;28;20106;-81
2023/01/29 08:50:51;;;;;;;35.17;20.87;;;3.60;91.00;;;;;;5038444;28;20033;-80
2023/01/29 08:53:18;;;;;;;36.47;21.03;;;3.60;91.00;;;;;;5038146;28;20032;-80
2023/01/29 08:55:45;;;;;;;40.70;22.27;;;3.70;90.90;;;;;;5054684;28;20025;-80
2023/01/29 08:58:11;;;;;;;34.03;19.73;;;3.80;90.90;;;;;;5054261;28;20032;-80
2023/01/29 09:00:36;;;;;;;35.53;20.27;;;3.70;90.80;;;;;;5055501;28;20032;-80
2023/01/29 09:03:02;;;;;;;36.30;21.17;;;3.70;90.70;;;;;;5021046;28;20490;-80
2023/01/29 09:05:29;;;;;;;33.87;19.50;;;3.70;90.70;;;;;;5054085;28;20036;-80
2023/01/29 09:07:58;;;;;;;33.63;18.80;;;3.80;90.70;;;;;;5053717;28;20039;-80
2023/01/29 09:10:23;;;;;;;38.63;20.50;;;3.80;90.70;;;;;;5054552;28;20032;-80
2023/01/29 09:12:49;;;;;;;33.87;19.57;;;3.80;90.60;;;;;;5055567;28;20161;-81
2023/01/29 09:15:15;;;;;;;36.27;19.90;;;3.80;90.60;;;;;;5037420;28;20021;-81
2023/01/29 09:17:40;;;;;;;32.80;18.73;;;3.90;90.60;;;;;;5054587;28;20056;-81
2023/01/29 09:20:07;;;;;;;36.07;19.67;;;3.90;90.50;;;;;;5038405;28;20025;-80
2023/01/29 09:22:33;;;;;;;37.73;19.80;;;3.90;90.50;;;;;;5037704;28;20150;-81
2023/01/29 09:24:58;;;;;;;35.20;19.80;;;3.90;90.50;;;;;;5054256;28;20044;-81
2023/01/29 09:27:24;;;;;;;32.17;19.20;;;3.90;90.50;;;;;;5037487;28;20044;-81
2023/01/29 09:29:50;;;;;;;30.40;17.90;;;4.10;90.50;;;;;;5054510;28;20084;-81
2023/01/29 09:32:15;;;;;;;33.77;19.67;;;4.00;90.40;;;;;;5055616;28;20499;-81
2023/01/29 09:34:41;;;;;;;33.53;18.67;;;4.00;90.50;;;;;;5020825;28;20082;-81
2023/01/29 09:37:06;;;;;;;33.70;18.10;;;4.00;90.20;;;;;;5036797;28;20048;-81
2023/01/29 09:39:32;;;;;;;27.83;17.47;;;4.20;90.30;;;;;;5054253;28;20419;-81
2023/01/29 09:41:58;;;;;;;34.70;18.80;;;4.10;90.20;;;;;;5053784;28;20025;-81
2023/01/29 09:44:38;;;;;;;33.20;18.33;;;4.00;90.20;;;;;;5053675;28;20036;-81
2023/01/29 09:47:10;;;;;;;28.90;17.57;;;4.10;90.20;;;;;;5053873;28;20116;-81
2023/01/29 09:49:41;;;;;;;26.13;15.53;;;4.20;90.10;;;;;;5053556;28;20061;-81
2023/01/29 09:52:25;;;;;;;25.43;14.63;;;4.10;90.10;;;;;;5053254;28;20111;-81
2023/01/29 09:55:19;;;;;;;30.67;17.97;;;4.10;90.10;;;;;;5053035;28;20021;-81
2023/01/29 09:57:48;;;;;;;28.00;16.70;;;4.20;90.00;;;;;;5053355;28;20033;-81
2023/01/29 10:00:30;;;;;;;32.97;17.60;;;4.20;89.80;;;;;;5053022;28;20056;-81
2023/01/29 10:03:08;;;;;;;28.63;17.20;;;4.20;89.80;;;;;;5054361;28;20179;-81
2023/01/29 10:05:44;;;;;;;27.77;15.77;;;4.20;89.80;;;;;;5052627;28;20049;-81
2023/01/29 10:08:31;;;;;;;29.83;17.57;;;4.20;89.70;;;;;;5053152;28;20040;-81
2023/01/29 10:11:26;;;;;;;27.73;16.47;;;4.20;89.40;;;;;;5052966;28;20512;-81
2023/01/29 10:14:03;;;;;;;;;;;4.20;89.40;;;;;;5048858;28;20524;-81
2023/01/29 10:16:48;;;;;;;31.73;18.13;;;4.20;89.40;;;;;;5053006;28;19970;-81
2023/01/29 10:19:44;;;;;;;30.33;17.27;;;4.20;89.00;;;;;;5054529;28;20025;-81
2023/01/29 10:22:36;;;;;;;30.93;17.57;;;4.30;89.00;;;;;;5054686;28;20033;-81
2023/01/29 10:25:10;;;;;;;28.53;16.67;;;4.30;89.00;;;;;;5052907;28;20032;-81
2023/01/29 10:27:38;;;;;;;;;;;4.30;88.90;;;;;;5053187;28;20128;-81
2023/01/29 10:30:36;;;;;;;30.30;16.40;;;4.30;88.70;;;;;;5054068;28;19904;-81
2023/01/29 10:33:04;;;;;;;25.47;15.23;;;4.30;88.50;;;;;;5035405;28;20037;-81
2023/01/29 10:35:36;;;;;;;28.23;15.83;;;4.30;88.30;;;;;;5052024;28;20070;-81
2023/01/29 10:38:30;;;;;;;29.03;16.30;;;4.40;88.50;;;;;;5053730;28;20029;-82
2023/01/29 10:41:18;;;;;;;27.63;16.20;;;4.40;88.20;;;;;;5052847;28;20068;-81
2023/01/29 10:43:59;;;;;;;28.27;16.93;;;4.40;88.00;;;;;;5052462;28;20052;-81
2023/01/29 10:46:51;;;;;;;26.50;15.97;;;4.40;88.00;;;;;;5052020;28;20123;-82
2023/01/29 10:49:44;;;;;;;29.47;16.87;;;4.40;87.70;;;;;;5052134;28;20477;-81
2023/01/29 10:52:13;;;;;;;30.83;17.67;;;4.40;87.70;;;;;;5052442;28;20079;-82
2023/01/29 10:55:04;;;;;;;27.70;16.33;;;4.40;87.60;;;;;;5052304;28;20497;-83
2023/01/29 10:57:36;;;;;;;29.03;17.23;;;4.40;87.30;;;;;;5043047;28;20071;-82
2023/01/29 11:00:12;;;;;;;29.17;16.77;;;4.40;87.30;;;;;;5052228;28;20123;-81
2023/01/29 11:02:47;;;;;;;25.87;14.87;;;4.40;87.50;;;;;;5053072;28;20045;-81
2023/01/29 11:05:35;;;;;;;26.37;16.93;;;4.40;87.50;;;;;;5051698;28;20076;-81
2023/01/29 11:08:12;;;;;;;29.40;16.97;;;4.40;87.40;;;;;;5053516;28;20064;-81
2023/01/29 11:10:47;;;;;;;28.47;17.30;;;4.50;87.20;;;;;;5051318;28;20200;-82
2023/01/29 11:13:15;;;;;;;27.37;16.93;;;4.50;87.20;;;;;;5051882;28;20032;-81
2023/01/29 11:15:41;;;;;;;29.80;17.20;;;4.50;87.10;;;;;;5052034;28;20025;-81
2023/01/29 11:18:14;;;;;;;29.33;17.60;;;4.50;87.20;;;;;;5035320;28;20075;-82
2023/01/29 11:20:44;;;;;;;25.97;15.93;;;4.60;87.20;;;;;;5053360;28;20346;-82
2023/01/29 11:23:30;;;;;;;25.33;15.67;;;4.50;87.20;;;;;;5035411;28;20044;-81
2023/01/29 11:25:57;;;;;;;26.40;15.90;;;4.60;87.20;;;;;;5053885;28;20021;-82
2023/01/29 11:28:42;;;;;;;27.93;15.50;;;4.70;87.20;;;;;;5051534;28;20093;-81
2023/01/29 11:31:34;;;;;;;28.20;16.53;;;4.60;86.90;;;;;;5052017;28;20048;-81
2023/01/29 11:34:18;;;;;;;26.17;16.53;;;4.60;86.90;;;;;;5051942;28;20170;-81
2023/01/29 11:36:44;;;;;;;27.23;16.42;;;4.70;86.90;;;;;;5051027;28;20052;-81
2023/01/29 11:39:18;;;;;;;29.50;16.27;;;4.70;86.60;;;;;;5053562;28;20488;-82
2023/01/29 11:41:55;;;;;;;26.17;16.27;;;4.70;86.60;;;;;;5051898;28;20491;-81
2023/01/29 11:44:41;;;;;;;27.20;15.50;;;4.80;86.50;;;;;;5051636;28;20381;-81
2023/01/29 11:47:17;;;;;;;25.93;15.93;;;4.80;86.40;;;;;;5052903;28;20036;-81
2023/01/29 11:49:53;;;;;;;27.47;16.97;;;4.80;86.60;;;;;;5051333;28;20568;-81
2023/01/29 11:52:22;;;;;;;27.63;16.97;;;4.80;86.60;;;;;;5053457;28;20155;-81
2023/01/29 11:54:55;;;;;;;28.17;16.90;;;4.80;86.80;;;;;;5052853;28;20027;-81
2023/01/29 11:57:21;;;;;;;28.00;17.27;;;4.90;86.20;;;;;;5052711;28;20103;-81
2023/01/29 11:59:49;;;;;;;26.07;17.17;;;4.90;86.30;;;;;;5053224;28;20098;-81
2023/01/29 12:02:25;;;;;;;26.37;17.00;;;4.90;86.40;;;;;;5052766;28;20055;-81
2023/01/29 12:04:54;;;;;;;25.93;16.53;;;4.90;86.20;;;;;;5050913;28;20025;-81
2023/01/29 12:07:20;;;;;;;28.93;18.37;;;4.90;86.30;;;;;;5051659;28;20489;-81
2023/01/29 12:09:56;;;;;;;29.87;19.10;;;5.00;86.20;;;;;;5051691;28;20021;-81
2023/01/29 12:12:41;;;;;;;28.90;17.93;;;4.90;86.00;;;;;;5050950;28;20025;-81
2023/01/29 12:15:23;;;;;;;31.20;19.23;;;5.00;86.30;;;;;;5052413;28;20035;-81
2023/01/29 12:17:58;;;;;;;31.13;18.50;;;5.00;86.20;;;;;;5052718;28;20023;-81
2023/01/29 12:20:48;;;;;;;30.93;19.30;;;5.00;86.20;;;;;;5053289;28;20059;-81
2023/01/29 12:23:53;;;;;;;33.77;21.37;;;5.00;86.10;;;;;;5052835;28;20049;-82
2023/01/29 12:26:59;;;;;;;32.28;19.40;;;4.90;85.90;;;;;;5017619;28;20045;-81
2023/01/29 12:29:44;;;;;;;31.70;18.73;;;4.90;86.30;;;;;;5054044;28;20183;-81
2023/01/29 12:32:33;;;;;;;30.83;19.20;;;4.90;86.20;;;;;;5056382;28;20052;-81
2023/01/29 12:35:44;;;;;;;29.83;18.70;;;4.90;86.50;;;;;;5054324;28;20032;-81
2023/01/29 12:38:16;;;;;;;33.17;19.10;;;4.90;86.50;;;;;;5052862;28;20044;-81
2023/01/29 12:40:44;;;;;;;29.67;18.37;;;5.00;86.50;;;;;;5056231;28;20104;-81
2023/01/29 12:43:21;;;;;;;31.63;19.57;;;4.90;86.60;;;;;;5055342;28;20025;-81
2023/01/29 12:45:52;;;;;;;32.00;19.13;;;4.90;86.60;;;;;;5056748;28;20078;-81
2023/01/29 12:48:33;;;;;;;31.03;20.10;;;4.90;86.70;;;;;;5056208;28;20090;-82
2023/01/29 12:51:12;;;;;;;32.37;20.00;;;4.90;86.90;;;;;;5055831;28;20025;-81
2023/01/29 12:53:47;;;;;;;32.23;20.43;;;5.00;87.10;;;;;;5055329;28;20048;-81
2023/01/29 12:56:25;;;;;;;35.63;21.53;;;5.00;87.10;;;;;;5054586;28;20028;-82
2023/01/29 12:58:55;;;;;;;35.00;20.93;;;5.00;87.10;;;;;;5055800;28;20029;-81
2023/01/29 13:01:33;;;;;;;36.57;21.07;;;5.10;87.00;;;;;;5054408;28;20029;-82
2023/01/29 13:04:05;;;;;;;35.23;22.10;;;5.00;86.90;;;;;;5054152;28;20041;-81
2023/01/29 13:06:41;;;;;;;36.97;22.13;;;5.00;86.90;;;;;;5054191;28;20025;-81
2023/01/29 13:09:13;;;;;;;38.47;23.03;;;5.00;86.80;;;;;;5055258;28;20056;-81
2023/01/29 13:11:46;;;;;;;35.10;21.47;;;5.00;86.70;;;;;;5056087;28;20025;-81
2023/01/29 13:14:20;;;;;;;38.25;23.27;;;4.90;86.90;;;;;;5055381;28;20021;-81
2023/01/29 13:16:51;;;;;;;35.90;21.30;;;5.00;87.10;;;;;;5054102;28;20074;-81
2023/01/29 13:19:38;;;;;;;35.77;21.10;;;5.00;87.20;;;;;;5055108;28;20024;-82
2023/01/29 13:22:15;;;;;;;33.40;20.57;;;4.90;87.30;;;;;;5054909;28;20395;-82
2023/01/29 13:24:42;;;;;;;34.03;21.60;;;4.90;87.30;;;;;;5054356;28;20086;-81
2023/01/29 13:27:25;;;;;;;36.30;21.90;;;5.00;87.50;;;;;;5054943;28;20044;-80
2023/01/29 13:29:52;;;;;;;38.30;23.37;;;5.00;87.60;;;;;;5053831;28;20032;-81